createdAt,value
2023-02-09T00:00:53.764Z,7.15
2023-02-09T00:02:55.798Z,7.10
2023-02-09T00:04:57.732Z,7.22
2023-02-09T00:07:00.722Z,7.27
2023-02-09T00:09:03.680Z,7.09
2023-02-09T00:11:09.665Z,6.95
2023-02-09T00:13:15.234Z,6.89
2023-02-09T00:15:17.325Z,6.83
2023-02-09T00:17:19.380Z,6.63
2023-02-09T00:19:22.259Z,6.76
2023-02-09T00:21:24.201Z,6.82
2023-02-09T00:23:28.233Z,6.85
2023-02-09T00:25:30.158Z,6.74
2023-02-09T00:27:35.617Z,6.76
2023-02-09T00:29:37.850Z,6.77
2023-02-09T00:31:40.112Z,6.81
2023-02-09T00:33:42.115Z,6.88
2023-02-09T00:35:44.801Z,6.88
2023-02-09T00:37:46.797Z,6.94
2023-02-09T00:39:48.703Z,6.93
2023-02-09T00:41:53.722Z,7.01
2023-02-09T00:43:55.659Z,7.05
2023-02-09T00:45:57.816Z,7.07
2023-02-09T00:48:00.595Z,7.05
2023-02-09T00:50:06.795Z,7.11
2023-02-09T00:52:10.049Z,7.08
2023-02-09T00:54:13.172Z,6.98
2023-02-09T00:56:15.159Z,6.84
2023-02-09T00:58:17.442Z,6.94
2023-02-09T01:00:20.747Z,6.98
2023-02-09T01:02:22.830Z,7.03
2023-02-09T01:04:24.880Z,6.98
2023-02-09T01:06:26.947Z,7.04
2023-02-09T01:08:28.889Z,7.05
2023-02-09T01:10:30.917Z,6.98
2023-02-09T01:12:33.093Z,7.06
2023-02-09T01:14:35.076Z,7.11
2023-02-09T01:16:37.100Z,7.14
2023-02-09T01:18:39.596Z,7.13
2023-02-09T01:20:42.772Z,7.12
2023-02-09T01:22:44.841Z,7.14
2023-02-09T01:24:47.307Z,7.16
2023-02-09T01:26:49.392Z,7.14
2023-02-09T01:28:52.762Z,7.16
2023-02-09T01:30:54.851Z,7.13
2023-02-09T01:32:56.967Z,7.00
2023-02-09T01:34:59.000Z,7.01
2023-02-09T01:37:01.002Z,7.02
2023-02-09T01:39:04.096Z,7.01
2023-02-09T01:41:06.055Z,7.05
2023-02-09T01:43:11.468Z,6.97
2023-02-09T01:45:20.420Z,6.98
2023-02-09T01:47:22.462Z,6.99
2023-02-09T01:49:27.013Z,7.03
2023-02-09T01:51:30.667Z,6.85
2023-02-09T01:53:33.203Z,6.99
2023-02-09T01:55:40.546Z,6.99
2023-02-09T01:57:49.287Z,6.99
2023-02-09T01:59:56.728Z,6.94
2023-02-09T02:01:58.711Z,6.97
2023-02-09T02:04:01.041Z,6.85
2023-02-09T02:06:09.364Z,6.83
2023-02-09T02:08:19.461Z,6.88
2023-02-09T02:10:22.197Z,6.74
2023-02-09T02:12:25.070Z,6.68
2023-02-09T02:14:30.164Z,6.75
2023-02-09T02:16:47.513Z,6.68
2023-02-09T02:18:52.960Z,6.49
2023-02-09T02:21:01.188Z,6.58
2023-02-09T02:23:09.503Z,6.49
2023-02-09T02:25:17.601Z,6.58
2023-02-09T02:27:30.407Z,6.64
2023-02-09T02:29:43.591Z,6.62
2023-02-09T02:31:58.272Z,6.62
2023-02-09T02:34:08.372Z,6.80
2023-02-09T02:36:13.985Z,6.77
2023-02-09T02:38:20.634Z,6.74
2023-02-09T02:40:30.513Z,6.62
2023-02-09T02:42:45.495Z,6.60
2023-02-09T02:44:59.248Z,6.67
2023-02-09T02:47:07.243Z,6.60
2023-02-09T02:49:24.905Z,6.60
2023-02-09T02:51:33.354Z,6.69
2023-02-09T02:53:37.822Z,6.72
2023-02-09T02:55:41.616Z,6.75
2023-02-09T02:57:47.488Z,6.83
2023-02-09T02:59:57.617Z,6.82
2023-02-09T03:02:06.500Z,6.88
2023-02-09T03:04:10.161Z,6.88
2023-02-09T03:06:13.982Z,6.92
2023-02-09T03:08:16.307Z,6.93
2023-02-09T03:10:24.605Z,6.82
2023-02-09T03:12:29.919Z,6.88
2023-02-09T03:14:36.320Z,6.86
2023-02-09T03:16:40.115Z,6.84
2023-02-09T03:18:46.709Z,6.86
2023-02-09T03:20:52.281Z,6.97
2023-02-09T03:23:00.455Z,7.00
2023-02-09T03:25:12.808Z,7.01
2023-02-09T03:27:22.087Z,6.98
2023-02-09T03:29:27.840Z,7.09
2023-02-09T03:31:31.934Z,7.07
2023-02-09T03:33:37.258Z,7.03
2023-02-09T03:35:41.569Z,7.01
2023-02-09T03:37:43.821Z,7.04
2023-02-09T03:39:45.884Z,7.07
2023-02-09T03:41:47.874Z,7.03
2023-02-09T03:43:53.031Z,7.04
2023-02-09T03:45:54.926Z,6.91
2023-02-09T03:47:57.031Z,6.89
2023-02-09T03:49:59.523Z,6.96
2023-02-09T03:52:02.484Z,6.89
2023-02-09T03:54:04.517Z,6.79
2023-02-09T03:56:09.422Z,6.81
2023-02-09T03:58:11.454Z,6.81
2023-02-09T04:00:14.563Z,6.88
2023-02-09T04:02:16.739Z,6.77
2023-02-09T04:04:19.020Z,6.68
2023-02-09T04:06:21.045Z,6.68
2023-02-09T04:08:22.971Z,6.60
2023-02-09T04:10:24.859Z,6.59
2023-02-09T04:12:26.868Z,6.57
2023-02-09T04:14:28.805Z,6.58
2023-02-09T04:16:31.025Z,6.64
2023-02-09T04:18:33.123Z,6.64
2023-02-09T04:20:35.047Z,6.63
2023-02-09T04:22:37.057Z,6.68
2023-02-09T04:24:39.102Z,6.55
2023-02-09T04:26:41.065Z,6.67
2023-02-09T04:28:43.511Z,6.64
2023-02-09T04:30:45.750Z,6.63
2023-02-09T04:32:47.926Z,6.69
2023-02-09T04:34:49.934Z,6.73
2023-02-09T04:36:51.791Z,6.72
2023-02-09T04:38:53.742Z,6.75
2023-02-09T04:40:56.490Z,6.77
2023-02-09T04:42:58.404Z,6.80
2023-02-09T04:45:00.481Z,6.75
2023-02-09T04:47:02.752Z,6.81
2023-02-09T04:49:04.708Z,6.81
2023-02-09T04:51:07.247Z,6.72
2023-02-09T04:53:09.615Z,6.74
2023-02-09T04:55:11.664Z,6.77
2023-02-09T04:57:16.792Z,6.71
2023-02-09T04:59:21.819Z,6.76
2023-02-09T05:01:24.867Z,6.71
2023-02-09T05:03:28.022Z,6.65
2023-02-09T05:05:30.494Z,6.62
2023-02-09T05:07:32.478Z,6.55
2023-02-09T05:09:34.405Z,6.55
2023-02-09T05:11:36.290Z,6.63
2023-02-09T05:13:38.430Z,6.41
2023-02-09T05:15:40.524Z,6.54
2023-02-09T05:17:42.518Z,6.42
2023-02-09T05:19:44.483Z,6.48
2023-02-09T05:21:46.510Z,6.41
2023-02-09T05:23:48.457Z,6.52
2023-02-09T05:25:50.495Z,6.50
2023-02-09T05:27:52.631Z,6.61
2023-02-09T05:29:54.584Z,6.37
2023-02-09T05:31:56.698Z,6.46
2023-02-09T05:33:58.815Z,6.51
2023-02-09T05:36:00.858Z,6.55
2023-02-09T05:38:02.918Z,6.45
2023-02-09T05:40:05.763Z,6.57
2023-02-09T05:42:10.840Z,6.54
2023-02-09T05:44:12.803Z,6.52
2023-02-09T05:46:14.895Z,6.43
2023-02-09T05:48:17.064Z,6.39
2023-02-09T05:50:19.289Z,6.51
2023-02-09T05:52:21.268Z,6.54
2023-02-09T05:54:23.247Z,6.55
2023-02-09T05:56:25.345Z,6.51
2023-02-09T05:58:27.443Z,6.46
2023-02-09T06:00:30.099Z,6.59
2023-02-09T06:02:32.293Z,6.63
2023-02-09T06:04:34.565Z,6.65
2023-02-09T06:06:36.924Z,6.64
2023-02-09T06:08:39.475Z,6.62
2023-02-09T06:10:41.495Z,6.67
2023-02-09T06:12:43.629Z,6.68
2023-02-09T06:14:45.755Z,6.65
2023-02-09T06:16:48.368Z,6.69
2023-02-09T06:18:50.269Z,6.69
2023-02-09T06:20:53.978Z,6.63
2023-02-09T06:22:57.261Z,6.64
2023-02-09T06:24:59.250Z,6.68
2023-02-09T06:27:01.351Z,6.66
2023-02-09T06:29:04.040Z,6.65
2023-02-09T06:31:07.180Z,6.66
2023-02-09T06:33:09.174Z,6.58
2023-02-09T06:35:11.113Z,6.69
2023-02-09T06:37:13.135Z,6.70
2023-02-09T06:39:15.188Z,6.63
2023-02-09T06:41:17.191Z,6.63
2023-02-09T06:43:19.127Z,6.68
2023-02-09T06:45:21.137Z,6.71
2023-02-09T06:47:23.077Z,6.87
2023-02-09T06:49:26.886Z,6.89
2023-02-09T06:51:29.210Z,6.93
2023-02-09T06:53:31.312Z,6.95
2023-02-09T06:55:33.974Z,6.93
2023-02-09T06:57:36.113Z,6.93
2023-02-09T06:59:40.009Z,6.91
2023-02-09T07:01:42.097Z,6.94
2023-02-09T07:03:44.586Z,6.99
2023-02-09T07:05:46.549Z,6.95
2023-02-09T07:07:48.581Z,6.93
2023-02-09T07:09:50.511Z,6.94
2023-02-09T07:11:52.569Z,6.93
2023-02-09T07:13:54.679Z,6.93
2023-02-09T07:15:57.831Z,6.91
2023-02-09T07:17:59.968Z,6.86
2023-02-09T07:20:02.092Z,6.81
2023-02-09T07:22:04.448Z,6.84
2023-02-09T07:24:07.312Z,6.84
2023-02-09T07:26:13.695Z,6.81
2023-02-09T07:28:17.225Z,6.88
2023-02-09T07:30:19.499Z,6.91
2023-02-09T07:32:24.011Z,6.88
2023-02-09T07:34:26.272Z,6.92
2023-02-09T07:36:28.530Z,7.02
2023-02-09T07:38:43.585Z,6.99
2023-02-09T07:40:47.007Z,7.03
2023-02-09T07:42:51.877Z,7.02
2023-02-09T07:44:53.951Z,6.93
2023-02-09T07:46:55.988Z,6.83
2023-02-09T07:49:01.084Z,6.94
2023-02-09T07:51:04.072Z,6.94
2023-02-09T07:53:06.201Z,6.98
2023-02-09T07:55:08.711Z,7.00
2023-02-09T07:57:13.028Z,7.04
2023-02-09T07:59:15.295Z,7.01
2023-02-09T08:01:18.436Z,7.09
2023-02-09T08:03:23.434Z,7.10
2023-02-09T08:05:32.211Z,7.18
2023-02-09T08:07:34.686Z,7.20
2023-02-09T08:09:36.970Z,7.21
2023-02-09T08:11:46.023Z,7.32
2023-02-09T08:13:49.973Z,7.32
2023-02-09T08:15:57.098Z,7.39
2023-02-09T08:18:03.021Z,7.41
2023-02-09T08:20:10.907Z,7.40
2023-02-09T08:22:13.165Z,7.36
2023-02-09T08:24:19.072Z,7.29
2023-02-09T08:26:21.808Z,7.35
2023-02-09T08:28:38.175Z,7.34
2023-02-09T08:30:40.933Z,7.30
2023-02-09T08:32:43.751Z,7.35
2023-02-09T08:34:46.228Z,7.32
2023-02-09T08:36:48.440Z,7.37
2023-02-09T08:38:51.026Z,7.41
2023-02-09T08:40:53.301Z,7.40
2023-02-09T08:42:55.731Z,7.36
2023-02-09T08:44:58.385Z,7.36
2023-02-09T08:47:00.717Z,7.49
2023-02-09T08:49:03.250Z,7.49
2023-02-09T08:51:06.851Z,7.55
2023-02-09T08:53:09.173Z,7.62
2023-02-09T08:55:12.132Z,7.58
2023-02-09T08:57:14.629Z,7.60
2023-02-09T08:59:19.757Z,7.66
2023-02-09T09:01:22.774Z,7.70
2023-02-09T09:03:29.067Z,7.72
2023-02-09T09:05:32.213Z,7.79
2023-02-09T09:07:34.941Z,7.81
2023-02-09T09:09:37.461Z,7.85
2023-02-09T09:11:39.803Z,7.87
2023-02-09T09:13:43.717Z,7.91
2023-02-09T09:15:46.684Z,7.91
2023-02-09T09:17:49.716Z,7.95
2023-02-09T09:19:56.054Z,7.99
2023-02-09T09:22:00.870Z,8.01
2023-02-09T09:24:03.170Z,8.05
2023-02-09T09:26:05.622Z,8.03
2023-02-09T09:28:09.212Z,8.07
2023-02-09T09:30:12.935Z,8.13
2023-02-09T09:32:15.409Z,8.14
2023-02-09T09:34:17.737Z,8.21
2023-02-09T09:36:21.094Z,8.22
2023-02-09T09:38:23.343Z,8.24
2023-02-09T09:40:29.263Z,8.28
2023-02-09T09:42:36.501Z,8.31
2023-02-09T09:44:47.123Z,8.34
2023-02-09T09:46:53.554Z,8.42
2023-02-09T09:48:58.216Z,8.41
2023-02-09T09:51:09.713Z,8.47
2023-02-09T09:53:17.435Z,8.29
2023-02-09T09:55:24.958Z,8.27
2023-02-09T09:57:30.575Z,8.28
2023-02-09T09:59:39.328Z,8.36
2023-02-09T10:01:41.739Z,8.41
2023-02-09T10:03:45.085Z,8.46
2023-02-09T10:05:52.223Z,8.59
2023-02-09T10:08:01.949Z,8.56
2023-02-09T10:10:14.288Z,8.57
2023-02-09T10:12:23.320Z,8.65
2023-02-09T10:14:25.806Z,8.68
2023-02-09T10:16:34.871Z,8.53
2023-02-09T10:18:38.441Z,8.45
2023-02-09T10:20:47.216Z,8.54
2023-02-09T10:22:52.273Z,8.65
2023-02-09T10:24:54.716Z,8.74
2023-02-09T10:27:03.177Z,8.78
2023-02-09T10:29:11.806Z,8.74
2023-02-09T10:31:17.801Z,8.80
2023-02-09T10:33:20.443Z,8.77
2023-02-09T10:35:28.541Z,8.83
2023-02-09T10:37:34.552Z,8.85
2023-02-09T10:39:37.169Z,9.00
2023-02-09T10:41:42.526Z,9.05
2023-02-09T10:43:52.846Z,9.07
2023-02-09T10:45:58.106Z,9.14
2023-02-09T10:48:15.909Z,9.20
2023-02-09T10:50:18.897Z,9.35
2023-02-09T10:52:24.273Z,9.32
2023-02-09T10:54:28.107Z,9.43
2023-02-09T10:56:36.284Z,9.45
2023-02-09T10:58:38.944Z,9.51
2023-02-09T11:00:51.008Z,9.55
2023-02-09T11:02:58.128Z,9.60
2023-02-09T11:05:00.528Z,9.67
2023-02-09T11:07:09.656Z,9.73
2023-02-09T11:09:17.609Z,9.75
2023-02-09T11:11:29.249Z,9.80
2023-02-09T11:13:34.975Z,9.86
2023-02-09T11:15:48.280Z,10.00
2023-02-09T11:17:56.715Z,10.04
2023-02-09T11:20:10.872Z,10.10
2023-02-09T11:22:15.296Z,10.23
2023-02-09T11:24:21.965Z,10.33
2023-02-09T11:26:30.303Z,10.35
2023-02-09T11:28:35.977Z,10.48
2023-02-09T11:30:45.254Z,10.51
2023-02-09T11:32:55.718Z,10.66
2023-02-09T11:35:01.123Z,10.73
2023-02-09T11:37:09.007Z,10.81
2023-02-09T11:39:14.611Z,10.83
2023-02-09T11:41:30.152Z,10.93
2023-02-09T11:43:39.739Z,10.99
2023-02-09T11:45:48.432Z,11.15
2023-02-09T11:47:54.296Z,11.18
2023-02-09T11:49:59.468Z,11.27
2023-02-09T11:52:04.441Z,11.39
2023-02-09T11:54:12.920Z,11.52
2023-02-09T11:56:17.845Z,11.56
2023-02-09T11:58:26.378Z,11.62
2023-02-09T12:00:53.459Z,11.76
2023-02-09T12:03:10.907Z,11.87
2023-02-09T12:05:17.794Z,11.91
2023-02-09T12:07:25.426Z,12.00
2023-02-09T12:09:32.228Z,12.05
2023-02-09T12:11:45.567Z,12.16
2023-02-09T12:14:00.742Z,12.19
2023-02-09T12:16:12.746Z,12.36
2023-02-09T12:18:22.007Z,12.47
2023-02-09T12:20:26.303Z,12.51
2023-02-09T12:22:34.634Z,12.54
2023-02-09T12:24:40.937Z,12.60
2023-02-09T12:26:44.862Z,12.64
2023-02-09T12:28:48.613Z,12.58
2023-02-09T12:30:51.677Z,12.65
2023-02-09T12:33:14.457Z,12.70
2023-02-09T12:35:27.901Z,12.63
2023-02-09T12:37:30.377Z,12.70
2023-02-09T12:39:34.311Z,12.80
2023-02-09T12:41:41.317Z,12.86
2023-02-09T12:43:45.800Z,12.96
2023-02-09T12:46:11.317Z,13.05
2023-02-09T12:48:19.598Z,13.16
2023-02-09T12:50:32.134Z,13.29
2023-02-09T12:52:34.784Z,13.33
2023-02-09T12:54:41.665Z,13.35
2023-02-09T12:56:44.136Z,13.38
2023-02-09T12:58:47.242Z,13.33
2023-02-09T13:00:54.955Z,13.26
2023-02-09T13:03:08.017Z,13.33
2023-02-09T13:05:16.094Z,13.35
2023-02-09T13:07:29.615Z,13.35
2023-02-09T13:09:38.789Z,13.27
2023-02-09T13:11:48.468Z,13.27
2023-02-09T13:13:57.031Z,13.21
2023-02-09T13:16:04.084Z,13.40
2023-02-09T13:18:20.387Z,13.30
2023-02-09T13:20:29.738Z,13.33
2023-02-09T13:22:40.232Z,13.45
2023-02-09T13:24:52.781Z,13.53
2023-02-09T13:26:57.492Z,13.54
2023-02-09T13:29:19.355Z,13.68
2023-02-09T13:31:30.338Z,13.73
2023-02-09T13:33:41.237Z,13.75
2023-02-09T13:35:55.019Z,13.75
2023-02-09T13:38:00.160Z,13.72
2023-02-09T13:40:14.218Z,13.71
2023-02-09T13:42:21.390Z,13.75
2023-02-09T13:44:28.072Z,13.69
2023-02-09T13:46:35.565Z,13.73
2023-02-09T13:48:39.260Z,13.81
2023-02-09T13:50:48.714Z,13.89
2023-02-09T13:52:51.290Z,13.94
2023-02-09T13:54:54.859Z,13.98
2023-02-09T13:56:57.574Z,14.08
2023-02-09T13:59:01.174Z,14.19
2023-02-09T14:01:05.680Z,14.21
2023-02-09T14:03:16.710Z,14.25
2023-02-09T14:05:25.886Z,14.32
2023-02-09T14:07:33.641Z,14.42
2023-02-09T14:09:46.618Z,14.53
2023-02-09T14:11:55.771Z,14.72
2023-02-09T14:14:03.171Z,14.75
2023-02-09T14:16:07.757Z,14.81
2023-02-09T14:18:16.211Z,14.85
2023-02-09T14:20:22.694Z,14.76
2023-02-09T14:22:28.375Z,14.67
2023-02-09T14:24:43.993Z,14.58
2023-02-09T14:26:52.091Z,14.66
2023-02-09T14:29:00.534Z,14.63
2023-02-09T14:31:02.893Z,14.63
2023-02-09T14:33:05.340Z,14.61
2023-02-09T14:35:18.299Z,14.67
2023-02-09T14:37:21.134Z,14.66
2023-02-09T14:39:23.574Z,14.62
2023-02-09T14:41:30.918Z,14.64
2023-02-09T14:43:33.165Z,14.67
2023-02-09T14:45:40.092Z,14.74
2023-02-09T14:47:45.104Z,14.77
2023-02-09T14:49:47.662Z,14.84
2023-02-09T14:51:54.131Z,14.92
2023-02-09T14:53:56.569Z,15.02
2023-02-09T14:55:59.346Z,15.05
2023-02-09T14:58:01.423Z,15.15
2023-02-09T15:00:10.105Z,15.17
2023-02-09T15:02:19.495Z,15.16
2023-02-09T15:04:22.052Z,15.18
2023-02-09T15:06:27.093Z,15.17
2023-02-09T15:08:34.509Z,15.14
2023-02-09T15:10:43.076Z,15.16
2023-02-09T15:12:45.604Z,15.13
2023-02-09T15:14:48.214Z,15.08
2023-02-09T15:16:51.229Z,15.08
2023-02-09T15:18:53.572Z,15.12
2023-02-09T15:20:56.289Z,15.11
2023-02-09T15:23:00.941Z,15.10
2023-02-09T15:25:03.198Z,15.09
2023-02-09T15:27:05.556Z,15.02
2023-02-09T15:29:14.033Z,15.07
2023-02-09T15:31:16.672Z,15.07
2023-02-09T15:33:18.939Z,15.00
2023-02-09T15:35:24.151Z,15.03
2023-02-09T15:37:32.213Z,14.88
2023-02-09T15:39:34.682Z,14.76
2023-02-09T15:41:40.110Z,14.67
2023-02-09T15:43:45.823Z,14.52
2023-02-09T15:45:51.502Z,14.33
2023-02-09T15:47:56.780Z,14.19
2023-02-09T15:49:59.573Z,14.08
2023-02-09T15:52:02.211Z,13.86
2023-02-09T15:54:09.016Z,13.75
2023-02-09T15:56:14.472Z,13.66
2023-02-09T15:58:20.767Z,13.66
2023-02-09T16:00:27.509Z,13.60
2023-02-09T16:02:30.161Z,13.54
2023-02-09T16:04:33.036Z,13.49
2023-02-09T16:06:36.184Z,13.37
2023-02-09T16:08:39.100Z,13.23
2023-02-09T16:10:41.737Z,13.26
2023-02-09T16:12:44.234Z,13.21
2023-02-09T16:14:46.816Z,13.12
2023-02-09T16:16:50.067Z,13.09
2023-02-09T16:18:52.641Z,13.05
2023-02-09T16:20:55.248Z,13.01
2023-02-09T16:23:00.918Z,12.93
2023-02-09T16:25:07.516Z,12.95
2023-02-09T16:27:16.985Z,12.91
2023-02-09T16:29:20.627Z,12.89
2023-02-09T16:31:24.104Z,12.86
2023-02-09T16:33:27.189Z,12.79
2023-02-09T16:35:31.430Z,12.78
2023-02-09T16:37:33.852Z,12.77
2023-02-09T16:39:36.219Z,12.75
2023-02-09T16:41:41.573Z,12.73
2023-02-09T16:46:02.237Z,12.65
2023-02-09T16:48:06.363Z,12.62
2023-02-09T16:50:14.993Z,12.59
2023-02-09T16:52:20.852Z,12.53
2023-02-09T16:54:23.640Z,12.52
2023-02-09T16:56:27.788Z,12.48
2023-02-09T16:58:30.241Z,12.42
2023-02-09T17:00:36.480Z,12.36
2023-02-09T17:02:44.694Z,12.35
2023-02-09T17:04:47.309Z,12.32
2023-02-09T17:06:52.984Z,12.23
2023-02-09T17:08:57.048Z,12.18
2023-02-09T17:11:02.520Z,12.16
2023-02-09T17:13:06.001Z,12.15
2023-02-09T17:15:28.473Z,12.12
2023-02-09T17:17:31.650Z,12.08
2023-02-09T17:19:46.930Z,12.04
2023-02-09T17:21:50.333Z,11.99
2023-02-09T17:23:54.028Z,11.96
2023-02-09T17:25:56.770Z,11.94
2023-02-09T17:27:59.293Z,11.88
2023-02-09T17:30:01.894Z,11.89
2023-02-09T17:32:06.093Z,11.84
2023-02-09T17:34:10.508Z,11.80
2023-02-09T17:36:26.518Z,11.73
2023-02-09T17:38:36.427Z,11.74
2023-02-09T17:40:38.840Z,11.68
2023-02-09T17:42:41.941Z,11.66
2023-02-09T17:44:46.641Z,11.64
2023-02-09T17:46:50.187Z,11.59
2023-02-09T17:48:52.666Z,11.58
2023-02-09T17:50:58.191Z,11.56
2023-02-09T17:53:01.576Z,11.56
2023-02-09T17:55:04.445Z,11.52
2023-02-09T17:57:07.240Z,11.47
2023-02-09T17:59:10.345Z,11.45
2023-02-09T18:01:26.406Z,11.41
2023-02-09T18:03:29.600Z,11.39
2023-02-09T18:05:39.233Z,11.36
2023-02-09T18:07:41.878Z,11.38
2023-02-09T18:09:44.373Z,11.34
2023-02-09T18:11:53.069Z,11.38
2023-02-09T18:13:55.554Z,11.33
2023-02-09T18:15:58.042Z,11.27
2023-02-09T18:18:00.507Z,11.24
2023-02-09T18:20:03.481Z,11.21
2023-02-09T18:22:06.398Z,11.20
2023-02-09T18:24:10.189Z,11.17
2023-02-09T18:26:12.437Z,11.09
2023-02-09T18:28:15.780Z,11.12
2023-02-09T18:30:21.134Z,11.09
2023-02-09T18:32:24.614Z,11.06
2023-02-09T18:34:27.165Z,11.02
2023-02-09T18:36:29.713Z,11.01
2023-02-09T18:38:31.900Z,10.98
2023-02-09T18:40:35.217Z,10.96
2023-02-09T18:42:37.540Z,10.96
2023-02-09T18:44:40.019Z,10.93
2023-02-09T18:46:43.732Z,10.91
2023-02-09T18:48:47.225Z,10.90
2023-02-09T18:50:49.793Z,10.86
2023-02-09T18:52:56.531Z,10.84
2023-02-09T18:54:59.165Z,10.84
2023-02-09T18:57:01.714Z,10.81
2023-02-09T18:59:04.294Z,10.73
2023-02-09T19:01:11.958Z,10.64
2023-02-09T19:03:17.244Z,10.62
2023-02-09T19:05:19.790Z,10.62
2023-02-09T19:07:22.671Z,10.60
2023-02-09T19:09:24.996Z,10.63
2023-02-09T19:11:27.269Z,10.60
2023-02-09T19:13:32.662Z,10.61
2023-02-09T19:15:36.382Z,10.60
2023-02-09T19:17:40.921Z,10.62
2023-02-09T19:19:45.012Z,10.60
2023-02-09T19:21:52.459Z,10.57
2023-02-09T19:23:55.188Z,10.56
2023-02-09T19:26:03.258Z,10.55
2023-02-09T19:28:06.252Z,10.54
2023-02-09T19:30:09.571Z,10.55
2023-02-09T19:32:14.644Z,10.52
2023-02-09T19:34:16.749Z,10.51
2023-02-09T19:36:18.737Z,10.46
2023-02-09T19:38:21.284Z,10.44
2023-02-09T19:40:28.606Z,10.44
2023-02-09T19:42:32.269Z,10.46
2023-02-09T19:44:35.561Z,10.50
2023-02-09T19:46:37.981Z,10.53
2023-02-09T19:48:40.597Z,10.55
2023-02-09T19:50:42.940Z,10.60
2023-02-09T19:52:47.711Z,10.59
2023-02-09T19:54:50.845Z,10.55
2023-02-09T19:56:53.316Z,10.54
2023-02-09T19:58:55.786Z,10.45
2023-02-09T20:00:58.344Z,10.50
2023-02-09T20:03:00.793Z,10.48
2023-02-09T20:05:02.890Z,10.50
2023-02-09T20:07:04.924Z,10.47
2023-02-09T20:09:07.168Z,10.46
2023-02-09T20:11:11.701Z,10.44
2023-02-09T20:13:14.333Z,10.43
2023-02-09T20:15:16.730Z,10.43
2023-02-09T20:19:22.316Z,10.40
2023-02-09T20:21:24.842Z,10.33
2023-02-09T20:23:27.221Z,10.27
2023-02-09T20:25:30.341Z,10.25
2023-02-09T20:27:33.063Z,10.23
2023-02-09T20:29:35.837Z,10.21
2023-02-09T20:31:40.034Z,10.24
2023-02-09T20:33:42.060Z,10.18
2023-02-09T20:35:45.860Z,10.15
2023-02-09T20:37:47.967Z,10.12
2023-02-09T20:39:49.973Z,10.07
2023-02-09T20:42:00.173Z,10.04
2023-02-09T20:44:05.432Z,10.08
2023-02-09T20:46:11.374Z,10.04
2023-02-09T20:48:14.035Z,10.01
2023-02-09T20:50:18.005Z,10.02
2023-02-09T20:52:20.079Z,10.00
2023-02-09T20:54:22.188Z,9.99
2023-02-09T20:56:24.368Z,10.01
2023-02-09T20:58:26.402Z,10.00
2023-02-09T21:00:29.184Z,9.96
2023-02-09T21:02:31.305Z,9.92
2023-02-09T21:04:33.367Z,9.92
2023-02-09T21:06:37.878Z,9.93
2023-02-09T21:08:39.900Z,9.93
2023-02-09T21:10:41.965Z,9.92
2023-02-09T21:12:43.973Z,9.92
2023-02-09T21:14:47.721Z,9.90
2023-02-09T21:16:55.432Z,9.87
2023-02-09T21:18:57.916Z,9.87
2023-02-09T21:21:01.107Z,9.89
2023-02-09T21:23:03.216Z,9.88
2023-02-09T21:25:05.394Z,9.86
2023-02-09T21:27:08.171Z,9.86
2023-02-09T21:29:10.631Z,9.86
2023-02-09T21:31:17.473Z,9.85
2023-02-09T21:33:19.518Z,9.82
2023-02-09T21:35:21.661Z,9.81
2023-02-09T21:37:23.615Z,9.80
2023-02-09T21:39:25.608Z,9.80
2023-02-09T21:41:31.102Z,9.79
2023-02-09T21:43:33.542Z,9.78
2023-02-09T21:45:38.758Z,9.79
2023-02-09T21:47:40.826Z,9.76
2023-02-09T21:49:43.403Z,9.82
2023-02-09T21:51:45.948Z,9.78
2023-02-09T21:53:48.792Z,9.77
2023-02-09T21:55:50.895Z,9.75
2023-02-09T21:57:53.179Z,9.73
2023-02-09T21:59:55.482Z,9.71
2023-02-09T22:01:57.862Z,9.70
2023-02-09T22:04:00.426Z,9.55
2023-02-09T22:06:02.665Z,9.50
2023-02-09T22:08:04.848Z,9.55
2023-02-09T22:10:07.692Z,9.57
2023-02-09T22:12:09.869Z,9.58
2023-02-09T22:14:11.992Z,9.58
2023-02-09T22:16:19.571Z,9.58
2023-02-09T22:18:21.585Z,9.55
2023-02-09T22:20:23.581Z,9.55
2023-02-09T22:22:25.577Z,9.49
2023-02-09T22:24:27.566Z,9.44
2023-02-09T22:26:29.680Z,9.36
2023-02-09T22:28:34.499Z,9.22
2023-02-09T22:30:38.313Z,9.18
2023-02-09T22:32:40.406Z,9.23
2023-02-09T22:34:42.405Z,9.12
2023-02-09T22:36:44.321Z,9.16
2023-02-09T22:38:46.596Z,9.14
2023-02-09T22:40:48.590Z,9.11
2023-02-09T22:42:50.675Z,9.06
2023-02-09T22:44:52.645Z,9.17
2023-02-09T22:46:54.568Z,9.20
2023-02-09T22:48:59.268Z,9.04
2023-02-09T22:51:01.238Z,9.05
2023-02-09T22:53:03.190Z,8.88
2023-02-09T22:55:05.644Z,8.98
2023-02-09T22:57:07.557Z,8.88
2023-02-09T22:59:12.603Z,8.86
2023-02-09T23:01:15.460Z,8.85
2023-02-09T23:03:17.507Z,8.87
2023-02-09T23:05:19.424Z,8.76
2023-02-09T23:07:21.344Z,8.70
2023-02-09T23:09:24.218Z,8.70
2023-02-09T23:11:27.197Z,8.68
2023-02-09T23:13:31.117Z,8.58
2023-02-09T23:15:33.656Z,8.55
2023-02-09T23:17:35.902Z,8.63
2023-02-09T23:19:37.840Z,8.62
2023-02-09T23:21:43.227Z,8.67
2023-02-09T23:23:45.518Z,8.63
2023-02-09T23:25:52.055Z,8.68
2023-02-09T23:27:54.064Z,8.66
2023-02-09T23:29:56.034Z,8.73
2023-02-09T23:31:58.759Z,8.68
2023-02-09T23:34:00.841Z,8.68
2023-02-09T23:36:05.254Z,8.73
2023-02-09T23:38:07.290Z,8.74
2023-02-09T23:40:10.289Z,8.79
2023-02-09T23:42:12.353Z,8.77
2023-02-09T23:44:14.540Z,8.67
2023-02-09T23:46:19.323Z,8.60
2023-02-09T23:48:21.372Z,8.55
2023-02-09T23:50:23.596Z,8.35
2023-02-09T23:52:25.581Z,8.32
2023-02-09T23:54:27.472Z,8.22
2023-02-09T23:56:33.199Z,8.12
2023-02-09T23:58:38.288Z,8.33
